Jaipur Airport
VIJP : now visible

Airfield :











YOU CAN JOIN US ON...

 
LOGIN :

Register | Disclaimer

   EN    FR    IT 

 









Legend :    VFR   Marginal VFR   IFR   Intensive IFR   Very Intensive IFR
Visi :
Ceiling :
>= 8 km
>= 3000ft
5 to 8 km
1000 to 3000 ft
1500m to 5 km
500 to 1000 ft
800 to 1500m
200 to 500 ft
< 800m
< 200 ft
Symbols :   Thunderstorms  Fog  Heavy snow  Heavy precipitations  Wind > 20 kt






- Airport Elevation : 1263 ft
- IATA code : JAI


VIJP - Jaipur

CURRENT METAR :
  • 250230Z 32008KT 3000 HZ NSC 35/12 Q1006 NOSIG

EXPIRED METARs :
  • 250200Z 28006KT 3000 HZ NSC 34/11 Q1005 NOSIG
  • 250130Z 29007KT 3000 HZ NSC 34/10 Q1005 NOSIG
  • 250100Z 28007KT 3000 HZ FEW100 34/10 Q1005 NOSIG
  • 250030Z 28006KT 3000 HZ FEW100 34/10 Q1004 NOSIG
  • 250000Z 28006KT 3000 HZ FEW100 34/09 Q1004 NOSIG

TAF TAF VIJP
Valid from the 25 at 03:00 until the 25 at 12:00 UTC


250200Z 2503/2512 29005G15KT 5000 HZ BLDU SCT030
VIDF FIR / Asia



MET'MAP, your aeronautical weather chart ! - Copyright ORBIFLY December 2007 - Disclaimer

ORBIFLY MET'MAP TEAM :

Programming & Development : Alexandra Zaïnal
Concept & original design : Baudouin d'Aumeries
Assistance for programming : Marc-Olivier Méhu
Technical & hardware support : Manuel Goepfert

Contact : metmap@orbifly.com




SOURCES & CREDITS :

   NOAA       Earth
Advisory